»·PEaware :: DAL4096 KSLC-KRNO

DAL4096 :: KSLC-KRNO

FLIGHT INFORMATION

Flight Status: Arrived
Operator:
Delta Air Lines
More flights by this operator :: More flights under this callsign
Pilot: Ben L. (6391)
Aircraft: BOEING 737-800
(B738)
More flights by this aircraft type
Origin: KSLC Salt Lake City Intl
United States
Destination: KRNO Reno/Tahoe Intl
United States
More flights between these airports :: More routes between these airports
Route: +DEZRT1 BAM MYBAD MYBAD2
File this flight plan on PilotEdge
Remarks:
Altitude:
(Current/Filed)
34,000ft
Speed:
(Current/Filed)
450kts
Departed: 03-Jan-20 06:35 PM
Arrived: 03-Jan-20 07:46 PM
Distance/Time
Traveled:
366nm/1:11
Distance/Time
To Go:
Arrived

Flight Plot

Page will automatically refresh every two minutes.

Flight plan parsing failed; only flown route is shown


Map Options




Map Legend


Flown Route
Filed Route
Departure Airport
Arrival Airport
Navaid (VOR, NDB)
Fix

Horizontal Profiles

Position Reports

Time Latitude Longitude Heading Altitude Ground
Speed
03-Jan-20 18:11 40.788125 -111.977859 267 4238ft 0kts
03-Jan-20 18:12 40.788125 -111.977859 267 4238ft 0kts
03-Jan-20 18:13 40.788125 -111.977859 267 4238ft 0kts
03-Jan-20 18:14 40.788125 -111.977859 267 4238ft 0kts
03-Jan-20 18:15 40.788125 -111.977859 267 4238ft 0kts
03-Jan-20 18:16 40.788125 -111.977859 267 4238ft 0kts
03-Jan-20 18:17 40.788125 -111.977859 267 4238ft 0kts
03-Jan-20 18:18 40.788125 -111.977859 267 4238ft 0kts
03-Jan-20 18:19 40.788125 -111.977859 267 4237ft 0kts
03-Jan-20 18:20 40.788125 -111.977859 267 4237ft 0kts
03-Jan-20 18:21 40.788125 -111.977859 267 4237ft 0kts
03-Jan-20 18:22 40.788125 -111.977859 267 4237ft 0kts
03-Jan-20 18:23 40.788125 -111.977859 267 4237ft 0kts
03-Jan-20 18:24 40.788126 -111.977793 259 4238ft 2kts
03-Jan-20 18:25 40.788618 -111.977567 176 4238ft 0kts
03-Jan-20 18:26 40.788629 -111.977568 176 4237ft 0kts
03-Jan-20 18:27 40.788629 -111.977568 176 4237ft 0kts
03-Jan-20 18:28 40.788613 -111.977566 173 4237ft 1kts
03-Jan-20 18:29 40.793146 -111.977481 355 4237ft 28kts
03-Jan-20 18:30 40.799796 -111.978255 355 4237ft 20kts
03-Jan-20 18:31 40.804485 -111.978283 354 4237ft 13kts
03-Jan-20 18:32 40.807103 -111.978581 18 4237ft 0kts
03-Jan-20 18:33 40.807158 -111.978555 21 4237ft 1kts
03-Jan-20 18:34 40.803498 -111.976455 175 4237ft 82kts
03-Jan-20 18:35 40.760756 -111.976612 203 5268ft 186kts
03-Jan-20 18:36 40.740166 -112.043627 272 7455ft 224kts
03-Jan-20 18:37 40.763003 -112.123441 307 9961ft 236kts
03-Jan-20 18:39 40.800067 -112.213081 294 11670ft 296kts
03-Jan-20 18:40 40.832526 -112.315596 294 14604ft 309kts
03-Jan-20 18:41 40.866699 -112.423033 292 14991ft 327kts
03-Jan-20 18:42 40.866300 -112.543258 266 14987ft 333kts
03-Jan-20 18:43 40.855914 -112.659540 266 14988ft 333kts
03-Jan-20 18:44 40.845947 -112.782034 267 15741ft 336kts
03-Jan-20 18:45 40.841856 -112.905870 274 17085ft 339kts
03-Jan-20 18:46 40.842419 -113.032744 274 19079ft 349kts
03-Jan-20 18:47 40.842734 -113.162012 274 21060ft 357kts
03-Jan-20 18:48 40.842909 -113.294256 275 23040ft 362kts
03-Jan-20 18:49 40.842929 -113.426702 275 25000ft 361kts
03-Jan-20 18:50 40.842798 -113.558230 276 26955ft 354kts
03-Jan-20 18:51 40.842523 -113.679949 276 28811ft 343kts
03-Jan-20 18:52 40.842078 -113.802858 277 30792ft 325kts
03-Jan-20 18:53 40.841150 -113.917753 278 32753ft 300kts
03-Jan-20 18:54 40.840571 -114.022941 278 34095ft 284kts
03-Jan-20 18:55 40.839904 -114.132430 277 34102ft 313kts
03-Jan-20 18:56 40.838964 -114.252510 277 34100ft 341kts
03-Jan-20 18:57 40.837814 -114.382564 276 34095ft 367kts
03-Jan-20 18:58 40.836426 -114.521632 276 34093ft 389kts
03-Jan-20 18:59 40.834871 -114.657176 275 34091ft 388kts
03-Jan-20 18:59 40.830847 -114.776186 269 34097ft 393kts
03-Jan-20 19:01 40.811653 -114.942822 269 34067ft 392kts
03-Jan-20 19:02 40.795479 -115.085211 267 34061ft 392kts
03-Jan-20 19:02 40.781946 -115.202945 265 34265ft 382kts
03-Jan-20 19:04 40.762991 -115.366326 265 34384ft 389kts
03-Jan-20 19:04 40.748952 -115.483642 265 34383ft 387kts
03-Jan-20 19:05 40.732302 -115.623827 265 34381ft 387kts
03-Jan-20 19:07 40.713510 -115.779995 265 34392ft 388kts
03-Jan-20 19:07 40.699311 -115.897152 265 34390ft 388kts
03-Jan-20 19:08 40.682134 -116.037551 265 34389ft 388kts
03-Jan-20 19:10 40.661864 -116.201393 265 34384ft 388kts
03-Jan-20 19:10 40.647227 -116.318517 265 34370ft 388kts
03-Jan-20 19:11 40.629549 -116.458660 265 34357ft 388kts
03-Jan-20 19:12 40.611679 -116.598921 265 34355ft 388kts
03-Jan-20 19:13 40.594602 -116.731318 264 34364ft 392kts
03-Jan-20 19:14 40.576265 -116.872291 264 34364ft 387kts
03-Jan-20 19:15 40.558457 -117.011760 264 34362ft 383kts
03-Jan-20 19:16 40.542101 -117.148946 263 34361ft 378kts
03-Jan-20 19:17 40.525605 -117.285801 262 34359ft 379kts
03-Jan-20 19:18 40.508908 -117.422923 262 34350ft 379kts
03-Jan-20 19:19 40.492089 -117.559671 262 34328ft 379kts
03-Jan-20 19:20 40.476208 -117.687504 262 34328ft 378kts
03-Jan-20 19:21 40.458845 -117.825619 262 34329ft 379kts
03-Jan-20 19:22 40.441495 -117.962544 262 34326ft 379kts
03-Jan-20 19:23 40.424043 -118.099067 262 34325ft 379kts
03-Jan-20 19:24 40.406360 -118.235978 262 34323ft 379kts
03-Jan-20 19:25 40.384680 -118.371158 252 34325ft 382kts
03-Jan-20 19:26 40.332141 -118.494175 243 34320ft 388kts
03-Jan-20 19:27 40.276178 -118.614895 244 34318ft 388kts
03-Jan-20 19:28 40.228577 -118.732388 247 33806ft 393kts
03-Jan-20 19:29 40.179042 -118.858725 245 31662ft 384kts
03-Jan-20 19:30 40.130303 -118.982496 244 29362ft 383kts
03-Jan-20 19:31 40.080929 -119.107387 243 26749ft 391kts
03-Jan-20 19:32 40.030347 -119.234283 242 24120ft 400kts
03-Jan-20 19:33 39.979421 -119.361825 242 22245ft 365kts
03-Jan-20 19:34 39.937644 -119.465153 238 21352ft 285kts
03-Jan-20 19:35 39.900014 -119.543048 237 20066ft 255kts
03-Jan-20 19:36 39.865853 -119.615203 238 18231ft 250kts
03-Jan-20 19:37 39.833969 -119.686971 237 16145ft 243kts
03-Jan-20 19:38 39.794118 -119.755192 199 13253ft 229kts
03-Jan-20 19:39 39.730111 -119.760089 185 9172ft 223kts
03-Jan-20 19:40 39.686232 -119.793507 188 8516ft 179kts
03-Jan-20 19:41 39.635271 -119.789755 165 7853ft 186kts
03-Jan-20 19:42 39.589262 -119.774154 170 5973ft 147kts
03-Jan-20 19:43 39.549778 -119.769741 179 5138ft 149kts
03-Jan-20 19:44 39.508441 -119.769226 180 4427ft 147kts
03-Jan-20 19:45 39.489419 -119.769410 200 4419ft 11kts
03-Jan-20 19:46 39.490275 -119.770699 0 4419ft 5kts
03-Jan-20 19:47 39.494265 -119.770699 0 4419ft 17kts
03-Jan-20 19:48 39.499724 -119.770664 0 4419ft 26kts

Navigation Log

Ident Type
Flight plan parsing failed, navigation log unavailable